Time;durP1;ratioP1;P1;durP2;ratioP2;P2;SDS_P1;SDS_P2;PMS_P1;PMS_P2;Temp;Humidity;BMP_temperature;BMP_pressure;BME280_temperature;BME280_humidity;BME280_pressure;Samples;Min_cycle;Max_cycle;Signal;HPM_P1;HPM_P2
2020/09/03 00:01:26;;;;;;;1.95;1.76;;;;;;;20.91;65.99;100753.92;;;;-58
2020/09/03 00:04:26;;;;;;;2.00;1.81;;;;;;;20.91;65.99;100755.80;;;;-58
2020/09/03 00:07:26;;;;;;;1.93;1.80;;;;;;;20.91;66.04;100756.86;;;;-58
2020/09/03 00:10:26;;;;;;;1.93;1.70;;;;;;;20.90;66.00;100750.76;;;;-51
2020/09/03 00:13:26;;;;;;;2.30;1.81;;;;;;;20.91;66.01;100748.47;;;;-52
2020/09/03 00:16:26;;;;;;;2.81;1.89;;;;;;;20.90;65.99;100751.66;;;;-58
2020/09/03 00:19:26;;;;;;;2.15;1.95;;;;;;;20.89;66.06;100752.84;;;;-58
2020/09/03 00:22:26;;;;;;;1.95;1.80;;;;;;;20.89;66.06;100755.30;;;;-58
2020/09/03 00:25:26;;;;;;;1.95;1.80;;;;;;;20.89;65.99;100755.30;;;;-52
2020/09/03 00:28:26;;;;;;;1.71;1.61;;;;;;;20.89;66.09;100760.02;;;;-58
2020/09/03 00:31:26;;;;;;;2.01;1.70;;;;;;;20.89;66.02;100761.25;;;;-58
2020/09/03 00:34:26;;;;;;;1.97;1.83;;;;;;;20.88;66.11;100764.36;;;;-58
2020/09/03 00:37:26;;;;;;;1.90;1.77;;;;;;;20.88;66.07;100763.86;;;;-58
2020/09/03 00:40:26;;;;;;;2.65;1.79;;;;;;;20.87;66.12;100765.38;;;;-58
2020/09/03 00:43:26;;;;;;;1.83;1.71;;;;;;;20.87;66.09;100764.25;;;;-58
2020/09/03 00:46:26;;;;;;;1.80;1.70;;;;;;;20.87;66.12;100766.13;;;;-58
2020/09/03 00:49:26;;;;;;;2.04;1.71;;;;;;;20.87;66.09;100764.82;;;;-58
2020/09/03 00:52:26;;;;;;;1.98;1.71;;;;;;;20.86;66.01;100766.45;;;;-58
2020/09/03 00:55:26;;;;;;;1.87;1.75;;;;;;;20.85;66.12;100753.97;;;;-58
2020/09/03 00:58:26;;;;;;;1.82;1.72;;;;;;;20.86;66.08;100756.36;;;;-58
2020/09/03 01:01:26;;;;;;;1.85;1.75;;;;;;;20.85;66.16;100760.00;;;;-58
2020/09/03 01:04:26;;;;;;;1.78;1.68;;;;;;;20.84;66.07;100762.20;;;;-58
2020/09/03 01:07:26;;;;;;;1.77;1.67;;;;;;;20.85;66.18;100764.32;;;;-58
2020/09/03 01:10:26;;;;;;;2.09;1.69;;;;;;;20.85;66.13;100765.14;;;;-51
2020/09/03 01:13:26;;;;;;;1.81;1.68;;;;;;;20.85;66.14;100766.59;;;;-51
2020/09/03 01:16:26;;;;;;;1.91;1.70;;;;;;;20.83;66.18;100764.95;;;;-52
2020/09/03 01:19:26;;;;;;;1.81;1.71;;;;;;;20.84;66.08;100765.55;;;;-58
2020/09/03 01:22:26;;;;;;;2.23;1.79;;;;;;;20.83;66.14;100766.42;;;;-58
2020/09/03 01:25:26;;;;;;;1.90;1.77;;;;;;;20.83;66.13;100762.19;;;;-52
2020/09/03 01:28:26;;;;;;;1.87;1.70;;;;;;;20.83;66.14;100757.62;;;;-52
2020/09/03 01:31:26;;;;;;;1.80;1.70;;;;;;;20.82;66.14;100754.54;;;;-52
2020/09/03 01:34:26;;;;;;;1.98;1.85;;;;;;;20.82;66.09;100753.80;;;;-58
2020/09/03 01:37:26;;;;;;;1.80;1.70;;;;;;;20.82;66.10;100753.56;;;;-52
2020/09/03 01:40:26;;;;;;;2.43;1.64;;;;;;;20.82;66.12;100752.99;;;;-52
2020/09/03 01:43:26;;;;;;;1.73;1.63;;;;;;;20.81;66.12;100751.42;;;;-58
2020/09/03 01:46:26;;;;;;;1.65;1.55;;;;;;;20.81;66.17;100753.30;;;;-58
2020/09/03 01:49:26;;;;;;;1.76;1.66;;;;;;;20.82;66.12;100753.56;;;;-58
2020/09/03 01:52:26;;;;;;;1.86;1.71;;;;;;;20.81;66.14;100751.83;;;;-58
2020/09/03 01:55:26;;;;;;;1.77;1.67;;;;;;;20.82;66.12;100755.27;;;;-58
2020/09/03 01:58:26;;;;;;;1.94;1.71;;;;;;;20.82;66.03;100754.38;;;;-58
2020/09/03 02:01:26;;;;;;;1.89;1.61;;;;;;;20.81;66.14;100757.86;;;;-58
2020/09/03 02:04:26;;;;;;;1.79;1.69;;;;;;;20.81;66.21;100757.20;;;;-58
2020/09/03 02:07:26;;;;;;;1.76;1.66;;;;;;;20.80;66.15;100752.90;;;;-58
2020/09/03 02:10:26;;;;;;;2.00;1.80;;;;;;;20.81;66.14;100750.28;;;;-51
2020/09/03 02:13:26;;;;;;;2.44;1.65;;;;;;;20.81;66.10;100756.56;;;;-51
2020/09/03 02:16:26;;;;;;;1.80;1.61;;;;;;;20.80;66.14;100754.94;;;;-58
2020/09/03 02:19:26;;;;;;;1.96;1.69;;;;;;;20.80;66.16;100755.99;;;;-58
2020/09/03 02:22:26;;;;;;;1.80;1.70;;;;;;;20.79;66.10;100749.48;;;;-51
2020/09/03 02:25:26;;;;;;;1.81;1.71;;;;;;;20.81;66.15;100753.38;;;;-58
2020/09/03 02:28:26;;;;;;;1.77;1.67;;;;;;;20.80;66.15;100756.48;;;;-52
2020/09/03 02:31:26;;;;;;;1.70;1.60;;;;;;;20.81;66.12;100757.53;;;;-52
2020/09/03 02:34:26;;;;;;;1.63;1.53;;;;;;;20.81;66.16;100753.87;;;;-52
2020/09/03 02:37:26;;;;;;;1.77;1.67;;;;;;;20.79;66.17;100751.92;;;;-52
2020/09/03 02:40:26;;;;;;;1.81;1.61;;;;;;;20.79;66.09;100752.09;;;;-52
2020/09/03 02:43:26;;;;;;;1.70;1.60;;;;;;;20.80;66.15;100751.19;;;;-58
2020/09/03 02:46:26;;;;;;;1.72;1.62;;;;;;;20.79;66.13;100745.63;;;;-52
2020/09/03 02:49:26;;;;;;;1.71;1.61;;;;;;;20.79;66.16;100747.83;;;;-52
2020/09/03 02:52:26;;;;;;;1.81;1.71;;;;;;;20.79;66.21;100751.33;;;;-53
2020/09/03 02:55:26;;;;;;;1.67;1.57;;;;;;;20.79;66.16;100757.03;;;;-51
2020/09/03 02:58:26;;;;;;;1.82;1.71;;;;;;;20.78;66.12;100746.94;;;;-52
2020/09/03 03:01:26;;;;;;;1.69;1.59;;;;;;;20.78;66.12;100752.16;;;;-52
2020/09/03 03:04:26;;;;;;;1.70;1.60;;;;;;;20.78;66.13;100758.75;;;;-58
2020/09/03 03:07:26;;;;;;;1.88;1.62;;;;;;;20.78;66.16;100758.18;;;;-58
2020/09/03 03:10:26;;;;;;;1.89;1.71;;;;;;;20.78;66.13;100761.36;;;;-58
2020/09/03 03:13:26;;;;;;;1.86;1.61;;;;;;;20.78;66.18;100765.67;;;;-58
2020/09/03 03:16:26;;;;;;;1.71;1.61;;;;;;;20.77;66.20;100766.91;;;;-52
2020/09/03 03:19:26;;;;;;;1.84;1.71;;;;;;;20.78;66.17;100772.03;;;;-52
2020/09/03 03:22:26;;;;;;;1.70;1.60;;;;;;;20.77;66.16;100774.56;;;;-51
2020/09/03 03:25:26;;;;;;;1.78;1.68;;;;;;;20.77;66.16;100779.77;;;;-51
2020/09/03 03:28:26;;;;;;;1.70;1.60;;;;;;;20.76;66.18;100777.06;;;;-58
2020/09/03 03:31:26;;;;;;;1.65;1.55;;;;;;;20.76;66.20;100777.55;;;;-58
2020/09/03 03:34:26;;;;;;;1.65;1.55;;;;;;;20.77;66.21;100779.42;;;;-58
2020/09/03 03:37:26;;;;;;;1.86;1.76;;;;;;;20.77;66.18;100781.62;;;;-51
2020/09/03 03:40:25;;;;;;;2.11;1.61;;;;;;;20.77;66.16;100785.37;;;;-52
2020/09/03 03:43:26;;;;;;;1.75;1.60;;;;;;;20.76;66.16;100786.91;;;;-51
2020/09/03 03:46:26;;;;;;;1.76;1.66;;;;;;;20.76;66.20;100788.55;;;;-58
2020/09/03 03:49:26;;;;;;;1.80;1.70;;;;;;;20.75;66.19;100788.64;;;;-58
2020/09/03 03:52:26;;;;;;;1.80;1.70;;;;;;;20.75;66.20;100791.65;;;;-58
2020/09/03 03:55:26;;;;;;;1.65;1.55;;;;;;;20.75;66.20;100792.30;;;;-58
2020/09/03 03:58:26;;;;;;;1.63;1.53;;;;;;;20.75;66.20;100796.30;;;;-58
2020/09/03 04:01:26;;;;;;;1.71;1.61;;;;;;;20.75;66.20;100802.32;;;;-58
2020/09/03 04:04:26;;;;;;;1.83;1.73;;;;;;;20.75;66.17;100802.70;;;;-58
2020/09/03 04:07:26;;;;;;;1.60;1.50;;;;;;;20.75;66.17;100800.86;;;;-58
2020/09/03 04:10:26;;;;;;;1.82;1.72;;;;;;;20.75;66.15;100798.09;;;;-58
2020/09/03 04:13:26;;;;;;;1.70;1.60;;;;;;;20.74;66.17;100799.13;;;;-58
2020/09/03 04:16:26;;;;;;;1.75;1.64;;;;;;;20.74;66.13;100796.02;;;;-58
2020/09/03 04:19:26;;;;;;;1.63;1.53;;;;;;;20.74;66.14;100797.66;;;;-58
2020/09/03 04:22:26;;;;;;;1.73;1.63;;;;;;;20.74;66.20;100806.54;;;;-59
2020/09/03 04:25:26;;;;;;;1.79;1.69;;;;;;;20.74;66.16;100803.61;;;;-58
2020/09/03 04:28:26;;;;;;;1.65;1.55;;;;;;;20.74;66.16;100810.77;;;;-52
2020/09/03 04:31:26;;;;;;;1.60;1.50;;;;;;;20.74;66.18;100816.22;;;;-52
2020/09/03 04:34:26;;;;;;;1.70;1.60;;;;;;;20.74;66.23;100818.02;;;;-52
2020/09/03 04:37:26;;;;;;;1.70;1.60;;;;;;;20.75;66.21;100822.90;;;;-58
2020/09/03 04:40:27;;;;;;;1.61;1.51;;;;;;;20.74;66.18;100832.77;;;;-58
2020/09/03 04:43:26;;;;;;;1.80;1.70;;;;;;;20.73;66.18;100838.06;;;;-53
2020/09/03 04:46:26;;;;;;;1.62;1.52;;;;;;;20.74;66.20;100845.06;;;;-58
2020/09/03 04:49:26;;;;;;;1.48;1.38;;;;;;;20.74;66.21;100837.66;;;;-58
2020/09/03 04:52:26;;;;;;;1.75;1.65;;;;;;;20.73;66.20;100827.15;;;;-58
2020/09/03 04:55:26;;;;;;;1.70;1.60;;;;;;;20.74;66.18;100832.35;;;;-51
2020/09/03 04:58:26;;;;;;;1.63;1.53;;;;;;;20.74;66.22;100836.59;;;;-52
2020/09/03 05:01:26;;;;;;;1.81;1.71;;;;;;;20.74;66.22;100832.60;;;;-52
2020/09/03 05:04:26;;;;;;;1.49;1.39;;;;;;;20.74;66.16;100839.20;;;;-58
2020/09/03 05:07:26;;;;;;;1.60;1.50;;;;;;;20.73;66.18;100846.20;;;;-58
2020/09/03 05:10:25;;;;;;;1.55;1.45;;;;;;;20.73;66.18;100853.67;;;;-52
2020/09/03 05:13:26;;;;;;;1.51;1.41;;;;;;;20.73;66.23;100861.49;;;;-52
2020/09/03 05:16:26;;;;;;;6.57;2.57;;;;;;;20.67;62.49;100862.04;;;;-52
2020/09/03 05:19:26;;;;;;;3.57;2.61;;;;;;;20.42;60.25;100865.03;;;;-52
2020/09/03 05:22:26;;;;;;;3.87;2.84;;;;;;;20.21;60.10;100863.41;;;;-54
2020/09/03 05:25:26;;;;;;;3.17;2.90;;;;;;;20.05;60.17;100855.84;;;;-49
2020/09/03 05:28:26;;;;;;;3.23;2.90;;;;;;;19.80;60.29;100860.36;;;;-49
2020/09/03 05:31:26;;;;;;;4.24;3.19;;;;;;;19.74;60.50;100865.83;;;;-49
2020/09/03 05:34:26;;;;;;;3.61;3.06;;;;;;;19.68;60.50;100857.99;;;;-49
2020/09/03 05:37:26;;;;;;;3.98;3.29;;;;;;;19.51;60.84;100858.20;;;;-49
2020/09/03 05:40:26;;;;;;;6.83;3.42;;;;;;;19.44;61.01;100865.65;;;;-49
2020/09/03 05:43:26;;;;;;;3.99;3.13;;;;;;;19.25;61.56;100870.69;;;;-49
2020/09/03 05:46:26;;;;;;;4.99;3.27;;;;;;;19.23;61.66;100864.07;;;;-51
2020/09/03 05:49:26;;;;;;;4.55;3.41;;;;;;;19.16;61.81;100856.35;;;;-49
2020/09/03 05:52:26;;;;;;;3.79;3.23;;;;;;;19.14;61.96;100854.94;;;;-51
2020/09/03 05:55:26;;;;;;;4.94;3.39;;;;;;;19.08;62.15;100855.42;;;;-56
2020/09/03 05:58:26;;;;;;;4.30;3.48;;;;;;;19.05;62.26;100872.86;;;;-52
2020/09/03 06:01:26;;;;;;;4.57;3.43;;;;;;;18.94;62.69;100874.86;;;;-50
2020/09/03 06:04:26;;;;;;;4.51;3.57;;;;;;;18.98;62.81;100854.13;;;;-51
2020/09/03 06:07:26;;;;;;;3.81;3.28;;;;;;;19.00;62.97;100846.45;;;;-49
2020/09/03 06:10:26;;;;;;;3.98;3.37;;;;;;;18.91;63.02;100860.78;;;;-49
2020/09/03 06:13:26;;;;;;;3.63;3.19;;;;;;;18.88;63.07;100859.91;;;;-51
2020/09/03 06:16:26;;;;;;;4.14;3.45;;;;;;;18.87;63.10;100858.77;;;;-54
2020/09/03 06:19:26;;;;;;;4.44;3.32;;;;;;;18.86;63.29;100863.29;;;;-54
2020/09/03 06:22:26;;;;;;;4.21;3.34;;;;;;;18.83;63.41;100873.33;;;;-49
2020/09/03 06:25:26;;;;;;;4.15;3.50;;;;;;;18.80;63.64;100875.45;;;;-56
2020/09/03 06:28:26;;;;;;;5.84;3.56;;;;;;;18.79;63.95;100875.38;;;;-49
2020/09/03 06:31:26;;;;;;;5.95;3.80;;;;;;;18.78;64.01;100875.34;;;;-52
2020/09/03 06:34:26;;;;;;;6.07;3.73;;;;;;;18.77;64.01;100869.62;;;;-49
2020/09/03 06:37:26;;;;;;;4.94;3.68;;;;;;;18.76;64.16;100871.00;;;;-49
2020/09/03 06:40:26;;;;;;;4.61;3.65;;;;;;;18.78;64.42;100886.62;;;;-54
2020/09/03 06:43:26;;;;;;;4.21;3.57;;;;;;;18.77;64.25;100893.66;;;;-54
2020/09/03 06:46:26;;;;;;;5.11;3.67;;;;;;;18.76;64.56;100889.08;;;;-56
2020/09/03 06:49:26;;;;;;;3.84;3.46;;;;;;;18.77;64.69;100894.72;;;;-49
2020/09/03 06:52:26;;;;;;;5.83;3.67;;;;;;;18.75;64.73;100896.71;;;;-49
2020/09/03 06:55:25;;;;;;;4.07;3.67;;;;;;;18.75;64.98;100890.45;;;;-48
2020/09/03 06:58:26;;;;;;;5.15;3.60;;;;;;;18.77;64.83;100892.60;;;;-48
2020/09/03 07:01:26;;;;;;;3.96;3.60;;;;;;;18.78;65.03;100893.64;;;;-49
2020/09/03 07:04:26;;;;;;;4.63;3.51;;;;;;;18.79;65.26;100903.70;;;;-52
2020/09/03 07:07:26;;;;;;;4.16;3.54;;;;;;;18.80;65.21;100906.83;;;;-49
2020/09/03 07:10:26;;;;;;;4.13;3.73;;;;;;;18.82;65.13;100905.97;;;;-55
2020/09/03 07:13:26;;;;;;;5.74;3.62;;;;;;;18.81;65.37;100903.66;;;;-51
2020/09/03 07:16:26;;;;;;;4.77;3.59;;;;;;;18.81;65.59;100906.58;;;;-52
2020/09/03 07:19:26;;;;;;;5.03;3.40;;;;;;;18.83;65.52;100905.08;;;;-52
2020/09/03 07:22:26;;;;;;;4.13;3.63;;;;;;;18.85;65.53;100908.59;;;;-52
2020/09/03 07:25:25;;;;;;;4.53;3.60;;;;;;;18.86;65.38;100911.45;;;;-52
2020/09/03 07:28:26;;;;;;;4.29;3.40;;;;;;;18.86;65.58;100917.86;;;;-52
2020/09/03 07:31:26;;;;;;;4.08;3.64;;;;;;;18.85;65.55;100920.70;;;;-52
2020/09/03 07:34:26;;;;;;;5.32;3.62;;;;;;;18.86;65.73;100930.39;;;;-55
2020/09/03 07:37:26;;;;;;;4.38;3.47;;;;;;;18.85;65.81;100929.63;;;;-49
2020/09/03 07:40:26;;;;;;;3.84;3.49;;;;;;;18.83;65.83;100933.91;;;;-49
2020/09/03 07:43:26;;;;;;;3.87;3.57;;;;;;;18.86;65.57;100941.57;;;;-49
2020/09/03 07:46:26;;;;;;;4.83;3.78;;;;;;;18.85;65.61;100939.21;;;;-49
2020/09/03 07:49:26;;;;;;;4.81;3.74;;;;;;;18.85;66.06;100932.31;;;;-52
2020/09/03 07:52:25;;;;;;;4.99;3.68;;;;;;;18.86;65.91;100932.07;;;;-52
2020/09/03 07:55:26;;;;;;;4.99;3.35;;;;;;;18.87;66.09;100929.42;;;;-55
2020/09/03 07:58:26;;;;;;;4.65;3.37;;;;;;;18.90;66.22;100930.19;;;;-54
2020/09/03 08:01:26;;;;;;;3.69;3.19;;;;;;;18.92;66.26;100928.44;;;;-55
2020/09/03 08:04:26;;;;;;;3.41;3.01;;;;;;;19.01;65.44;100927.05;;;;-54
2020/09/03 08:07:26;;;;;;;4.37;3.05;;;;;;;19.08;64.78;100930.40;;;;-55
2020/09/03 08:10:26;;;;;;;11.73;3.43;;;;;;;19.13;64.59;100940.13;;;;-48
2020/09/03 08:13:26;;;;;;;4.61;3.06;;;;;;;19.17;64.62;100935.56;;;;-54
2020/09/03 08:16:26;;;;;;;6.23;2.93;;;;;;;19.21;64.70;100941.97;;;;-54
2020/09/03 08:19:26;;;;;;;4.32;2.75;;;;;;;19.26;64.80;100935.31;;;;-51
2020/09/03 08:22:26;;;;;;;3.63;2.92;;;;;;;19.31;64.84;100942.61;;;;-51
2020/09/03 08:25:26;;;;;;;3.48;2.72;;;;;;;19.34;64.99;100944.38;;;;-51
2020/09/03 08:28:26;;;;;;;4.37;2.59;;;;;;;19.38;65.03;100941.75;;;;-51
2020/09/03 08:31:26;;;;;;;9.64;3.07;;;;;;;19.41;64.81;100942.03;;;;-47
2020/09/03 08:34:26;;;;;;;12.13;3.19;;;;;;;19.45;65.01;100949.81;;;;-53
2020/09/03 08:37:26;;;;;;;7.52;2.75;;;;;;;19.48;65.18;100947.97;;;;-54
2020/09/03 08:40:26;;;;;;;5.48;3.02;;;;;;;19.52;65.25;100952.17;;;;-47
2020/09/03 08:43:26;;;;;;;8.61;2.84;;;;;;;19.55;65.29;100958.73;;;;-51
2020/09/03 08:46:26;;;;;;;4.05;2.81;;;;;;;19.58;65.27;100963.72;;;;-49
2020/09/03 08:49:26;;;;;;;8.35;2.67;;;;;;;19.61;65.23;100962.48;;;;-55
2020/09/03 08:52:25;;;;;;;6.29;2.70;;;;;;;19.63;65.35;100965.03;;;;-51
2020/09/03 08:55:26;;;;;;;4.87;2.73;;;;;;;19.67;65.40;100970.37;;;;-53
2020/09/03 08:58:26;;;;;;;5.84;2.61;;;;;;;19.69;65.37;100971.18;;;;-57
2020/09/03 09:01:26;;;;;;;5.48;2.82;;;;;;;19.72;65.42;100971.43;;;;-48
2020/09/03 09:04:26;;;;;;;3.57;2.45;;;;;;;19.75;65.37;100971.78;;;;-51
2020/09/03 09:07:26;;;;;;;3.98;2.43;;;;;;;19.78;65.42;100968.59;;;;-53
2020/09/03 09:10:26;;;;;;;3.67;2.58;;;;;;;19.81;65.40;100972.67;;;;-71
2020/09/03 09:13:26;;;;;;;3.53;2.58;;;;;;;19.83;65.45;100969.13;;;;-51
2020/09/03 09:16:26;;;;;;;3.53;2.34;;;;;;;19.85;65.43;100959.72;;;;-51
2020/09/03 09:19:26;;;;;;;4.34;2.62;;;;;;;19.88;65.43;100959.20;;;;-63
2020/09/03 09:22:26;;;;;;;2.91;2.30;;;;;;;19.90;65.38;100958.30;;;;-63
2020/09/03 09:25:26;;;;;;;3.10;2.47;;;;;;;19.91;65.45;100961.75;;;;-49
2020/09/03 09:28:26;;;;;;;4.17;2.51;;;;;;;19.94;65.42;100965.52;;;;-49
2020/09/03 09:31:26;;;;;;;4.70;2.45;;;;;;;19.95;65.47;100966.59;;;;-56
2020/09/03 09:34:26;;;;;;;5.13;2.51;;;;;;;19.98;65.46;100964.78;;;;-57
2020/09/03 09:37:26;;;;;;;4.96;2.41;;;;;;;19.99;65.50;100965.03;;;;-57
2020/09/03 09:40:26;;;;;;;8.37;2.65;;;;;;;20.01;65.53;100963.59;;;;-54
2020/09/03 09:43:26;;;;;;;4.70;2.35;;;;;;;20.03;65.44;100960.44;;;;-54
2020/09/03 09:46:26;;;;;;;4.19;2.37;;;;;;;20.05;65.40;100959.33;;;;-58
2020/09/03 09:49:26;;;;;;;3.10;2.29;;;;;;;20.08;65.39;100961.95;;;;-51
2020/09/03 09:52:26;;;;;;;4.67;2.40;;;;;;;20.10;65.39;100963.11;;;;-50
2020/09/03 09:55:26;;;;;;;4.47;2.20;;;;;;;20.13;65.37;100963.55;;;;-48
2020/09/03 09:58:26;;;;;;;4.51;2.36;;;;;;;20.15;65.35;100961.38;;;;-48
2020/09/03 10:01:26;;;;;;;4.47;2.30;;;;;;;20.17;65.36;100958.90;;;;-50
2020/09/03 10:04:26;;;;;;;6.23;2.57;;;;;;;20.18;65.36;100956.21;;;;-54
2020/09/03 10:07:26;;;;;;;4.75;2.33;;;;;;;20.20;65.31;100956.97;;;;-50
2020/09/03 10:10:26;;;;;;;3.88;2.23;;;;;;;20.22;65.30;100951.95;;;;-48
2020/09/03 10:13:25;;;;;;;2.97;2.30;;;;;;;20.24;65.29;100952.78;;;;-52
2020/09/03 10:16:26;;;;;;;4.58;2.21;;;;;;;20.26;65.24;100953.70;;;;-48
2020/09/03 10:19:26;;;;;;;4.97;2.17;;;;;;;20.28;65.22;100944.77;;;;-54
2020/09/03 10:22:26;;;;;;;4.47;2.16;;;;;;;20.27;65.22;100943.88;;;;-53
2020/09/03 10:25:26;;;;;;;4.94;2.19;;;;;;;20.28;65.15;100940.86;;;;-53
2020/09/03 10:28:26;;;;;;;3.13;2.18;;;;;;;20.29;65.23;100934.78;;;;-53
2020/09/03 10:31:26;;;;;;;4.10;2.33;;;;;;;20.29;65.16;100938.91;;;;-53
2020/09/03 10:34:26;;;;;;;3.65;2.18;;;;;;;20.29;65.10;100937.77;;;;-53
2020/09/03 10:37:26;;;;;;;7.07;2.29;;;;;;;20.30;65.08;100938.03;;;;-54
2020/09/03 10:40:26;;;;;;;3.53;2.25;;;;;;;20.29;65.06;100929.14;;;;-53
2020/09/03 10:43:26;;;;;;;3.42;2.01;;;;;;;20.30;65.02;100936.25;;;;-53
2020/09/03 10:46:26;;;;;;;2.52;2.17;;;;;;;20.31;65.03;100936.08;;;;-53
2020/09/03 10:49:26;;;;;;;2.21;1.99;;;;;;;20.31;64.98;100929.32;;;;-53
2020/09/03 10:52:26;;;;;;;3.67;2.19;;;;;;;20.32;64.91;100929.11;;;;-53
2020/09/03 10:55:26;;;;;;;2.34;2.03;;;;;;;20.33;64.89;100925.27;;;;-53
2020/09/03 10:58:26;;;;;;;2.63;1.99;;;;;;;20.33;64.90;100924.14;;;;-53
2020/09/03 11:01:26;;;;;;;3.09;2.30;;;;;;;20.33;64.87;100924.95;;;;-53
2020/09/03 11:04:26;;;;;;;3.16;1.99;;;;;;;20.34;64.87;100929.53;;;;-53
2020/09/03 11:07:26;;;;;;;3.43;2.05;;;;;;;20.34;64.85;100927.66;;;;-53
2020/09/03 11:10:26;;;;;;;2.87;2.20;;;;;;;20.36;64.84;100929.88;;;;-53
2020/09/03 11:13:26;;;;;;;2.62;2.06;;;;;;;20.36;64.83;100930.75;;;;-56
2020/09/03 11:16:26;;;;;;;3.07;2.03;;;;;;;20.35;64.86;100928.80;;;;-54
2020/09/03 11:19:26;;;;;;;3.63;2.13;;;;;;;20.36;64.84;100934.03;;;;-54
2020/09/03 11:22:26;;;;;;;3.07;2.00;;;;;;;20.37;64.79;100931.42;;;;-55
2020/09/03 11:25:26;;;;;;;3.97;1.97;;;;;;;20.37;64.86;100935.25;;;;-57
2020/09/03 11:28:26;;;;;;;3.20;2.19;;;;;;;20.40;64.87;100927.40;;;;-54
2020/09/03 11:31:26;;;;;;;4.32;2.01;;;;;;;20.43;64.88;100926.36;;;;-58
2020/09/03 11:34:26;;;;;;;2.27;2.01;;;;;;;20.44;64.96;100918.22;;;;-61
2020/09/03 11:37:26;;;;;;;2.73;1.90;;;;;;;20.46;64.89;100920.54;;;;-61
2020/09/03 11:40:26;;;;;;;2.29;2.09;;;;;;;20.48;64.94;100916.73;;;;-54
2020/09/03 11:43:26;;;;;;;2.35;2.09;;;;;;;20.49;64.97;100915.75;;;;-54
2020/09/03 11:46:26;;;;;;;3.16;2.09;;;;;;;20.51;64.92;100914.22;;;;-50
2020/09/03 11:49:26;;;;;;;2.71;2.05;;;;;;;20.53;64.97;100912.53;;;;-55
2020/09/03 11:52:26;;;;;;;4.00;2.21;;;;;;;20.55;64.95;100911.83;;;;-52
2020/09/03 11:55:26;;;;;;;3.55;2.13;;;;;;;20.56;64.95;100911.41;;;;-56
2020/09/03 11:58:26;;;;;;;2.25;1.92;;;;;;;20.58;64.89;100907.71;;;;-56
2020/09/03 12:01:26;;;;;;;2.42;2.01;;;;;;;20.60;64.95;100911.97;;;;-60
2020/09/03 12:04:26;;;;;;;6.69;2.14;;;;;;;20.61;65.16;100908.81;;;;-54
2020/09/03 12:07:26;;;;;;;3.93;1.96;;;;;;;20.61;65.13;100908.41;;;;-54
2020/09/03 12:10:26;;;;;;;5.45;1.97;;;;;;;20.64;65.12;100910.38;;;;-51
2020/09/03 12:13:26;;;;;;;5.05;2.18;;;;;;;20.67;65.22;100910.42;;;;-50
2020/09/03 12:16:26;;;;;;;3.98;2.03;;;;;;;20.67;65.25;100908.78;;;;-47
2020/09/03 12:19:26;;;;;;;3.67;2.10;;;;;;;20.70;65.29;100911.41;;;;-53
2020/09/03 12:22:26;;;;;;;2.79;2.13;;;;;;;20.71;65.33;100906.52;;;;-54
2020/09/03 12:25:26;;;;;;;3.97;2.10;;;;;;;20.72;65.19;100909.06;;;;-52
2020/09/03 12:28:26;;;;;;;4.40;2.20;;;;;;;20.71;65.11;100908.58;;;;-48
2020/09/03 12:31:26;;;;;;;10.31;2.47;;;;;;;20.72;65.13;100909.31;;;;-49
2020/09/03 12:34:26;;;;;;;5.19;2.15;;;;;;;20.74;64.93;100909.89;;;;-49
2020/09/03 12:37:26;;;;;;;8.74;2.28;;;;;;;20.73;64.93;100907.59;;;;-58
2020/09/03 12:40:26;;;;;;;3.71;2.10;;;;;;;20.72;64.89;100908.66;;;;-59
2020/09/03 12:43:26;;;;;;;5.51;2.17;;;;;;;20.71;64.85;100908.80;;;;-59
2020/09/03 12:46:26;;;;;;;4.93;2.21;;;;;;;20.70;64.84;100906.77;;;;-59
2020/09/03 12:49:26;;;;;;;4.05;2.21;;;;;;;20.70;64.84;100902.20;;;;-58
2020/09/03 12:52:26;;;;;;;4.08;2.39;;;;;;;20.69;64.94;100899.68;;;;-58
2020/09/03 12:55:26;;;;;;;7.94;2.12;;;;;;;20.70;64.86;100900.25;;;;-59
2020/09/03 12:58:26;;;;;;;4.24;2.01;;;;;;;20.69;64.82;100893.73;;;;-58
2020/09/03 13:01:26;;;;;;;4.56;1.95;;;;;;;20.68;64.82;100893.47;;;;-58
2020/09/03 13:04:26;;;;;;;4.36;2.06;;;;;;;20.68;64.77;100893.96;;;;-58
2020/09/03 13:07:26;;;;;;;2.38;1.97;;;;;;;20.68;64.83;100890.95;;;;-58
2020/09/03 13:10:26;;;;;;;4.79;2.15;;;;;;;20.69;64.77;100892.57;;;;-58
2020/09/03 13:13:26;;;;;;;5.29;2.03;;;;;;;20.69;64.77;100896.64;;;;-57
2020/09/03 13:16:26;;;;;;;3.25;1.99;;;;;;;20.69;64.75;100905.47;;;;-58
2020/09/03 13:19:26;;;;;;;2.38;1.87;;;;;;;20.69;64.76;100905.22;;;;-57
2020/09/03 13:22:26;;;;;;;4.35;2.03;;;;;;;20.68;64.76;100906.66;;;;-57
2020/09/03 13:25:26;;;;;;;3.67;1.91;;;;;;;20.68;64.76;100905.53;;;;-58
2020/09/03 13:28:25;;;;;;;3.89;1.89;;;;;;;20.68;64.74;100904.87;;;;-58
2020/09/03 13:31:26;;;;;;;2.79;1.89;;;;;;;20.68;64.72;100901.28;;;;-58
2020/09/03 13:34:26;;;;;;;2.29;2.00;;;;;;;20.67;64.72;100900.56;;;;-58
2020/09/03 13:37:26;;;;;;;5.11;2.04;;;;;;;20.67;64.73;100901.45;;;;-58
2020/09/03 13:40:26;;;;;;;4.95;1.87;;;;;;;20.67;64.77;100897.55;;;;-58
2020/09/03 13:43:26;;;;;;;3.04;2.01;;;;;;;20.67;64.71;100900.07;;;;-58
2020/09/03 13:46:26;;;;;;;2.22;1.96;;;;;;;20.67;64.75;100903.90;;;;-58
2020/09/03 13:49:26;;;;;;;2.49;2.20;;;;;;;20.67;64.76;100898.52;;;;-59
2020/09/03 13:52:26;;;;;;;2.39;1.92;;;;;;;20.66;64.73;100895.89;;;;-59
2020/09/03 13:55:26;;;;;;;3.74;1.90;;;;;;;20.68;64.72;100897.30;;;;-58
2020/09/03 13:58:26;;;;;;;2.59;1.80;;;;;;;20.67;64.73;100891.11;;;;-58
2020/09/03 14:01:26;;;;;;;1.84;1.71;;;;;;;20.67;64.74;100889.30;;;;-58
2020/09/03 14:04:26;;;;;;;2.49;1.99;;;;;;;20.67;64.71;100887.34;;;;-58
2020/09/03 14:07:26;;;;;;;2.00;1.83;;;;;;;20.67;64.73;100891.58;;;;-58
2020/09/03 14:10:26;;;;;;;3.19;1.70;;;;;;;20.66;64.73;100892.97;;;;-58
2020/09/03 14:13:26;;;;;;;2.09;1.80;;;;;;;20.67;64.76;100896.95;;;;-58
2020/09/03 14:16:26;;;;;;;2.18;1.91;;;;;;;20.66;64.73;100896.06;;;;-56
2020/09/03 14:19:26;;;;;;;2.99;1.91;;;;;;;20.67;64.76;100897.11;;;;-57
2020/09/03 14:22:26;;;;;;;2.25;1.81;;;;;;;20.66;64.73;100896.55;;;;-58
2020/09/03 14:25:26;;;;;;;2.39;1.85;;;;;;;20.66;64.73;100900.30;;;;-57
2020/09/03 14:28:26;;;;;;;2.81;1.70;;;;;;;20.67;64.70;100905.28;;;;-57
2020/09/03 14:31:26;;;;;;;1.99;1.79;;;;;;;20.68;64.75;100904.71;;;;-56
2020/09/03 14:34:26;;;;;;;2.03;1.80;;;;;;;20.66;64.76;100904.53;;;;-57
2020/09/03 14:37:26;;;;;;;2.31;1.91;;;;;;;20.66;64.72;100905.27;;;;-56
2020/09/03 14:40:26;;;;;;;2.09;1.61;;;;;;;20.66;64.79;100901.03;;;;-57
2020/09/03 14:43:26;;;;;;;2.21;1.79;;;;;;;20.67;64.78;100900.56;;;;-58
2020/09/03 14:46:26;;;;;;;2.73;1.82;;;;;;;20.68;64.68;100899.09;;;;-58
2020/09/03 14:49:26;;;;;;;1.95;1.75;;;;;;;20.67;64.74;100900.53;;;;-58
2020/09/03 14:52:26;;;;;;;2.89;1.67;;;;;;;20.67;64.77;100906.89;;;;-50
2020/09/03 14:55:26;;;;;;;4.28;2.05;;;;;;;20.67;64.85;100907.97;;;;-49
2020/09/03 14:58:26;;;;;;;5.19;1.83;;;;;;;20.68;64.86;100912.45;;;;-50
2020/09/03 15:01:26;;;;;;;4.21;2.02;;;;;;;20.69;64.76;100906.91;;;;-48
2020/09/03 15:04:26;;;;;;;4.64;1.89;;;;;;;20.68;64.90;100901.53;;;;-49
2020/09/03 15:07:26;;;;;;;3.59;1.81;;;;;;;20.71;64.85;100901.01;;;;-48
2020/09/03 15:10:26;;;;;;;2.44;1.83;;;;;;;20.72;64.87;100897.41;;;;-49
2020/09/03 15:13:26;;;;;;;6.30;1.89;;;;;;;20.74;64.95;100899.14;;;;-47
2020/09/03 15:16:26;;;;;;;4.37;1.86;;;;;;;20.75;64.95;100902.34;;;;-47
2020/09/03 15:19:26;;;;;;;5.13;1.96;;;;;;;20.76;65.02;100898.67;;;;-48
2020/09/03 15:22:26;;;;;;;2.47;1.87;;;;;;;20.78;64.97;100902.11;;;;-47
2020/09/03 15:25:26;;;;;;;3.14;1.70;;;;;;;20.79;65.03;100897.38;;;;-50
2020/09/03 15:28:26;;;;;;;2.79;1.75;;;;;;;20.79;65.05;100896.27;;;;-45
2020/09/03 15:31:26;;;;;;;3.19;1.88;;;;;;;20.81;65.02;100903.27;;;;-51
2020/09/03 15:34:25;;;;;;;3.51;1.85;;;;;;;20.82;65.00;100904.83;;;;-46
2020/09/03 15:37:25;;;;;;;2.31;1.70;;;;;;;20.83;64.99;100905.23;;;;-51
2020/09/03 15:40:26;;;;;;;3.31;1.85;;;;;;;20.84;65.04;100907.61;;;;-46
2020/09/03 15:43:26;;;;;;;2.33;1.75;;;;;;;20.85;65.12;100910.30;;;;-51
2020/09/03 15:46:26;;;;;;;3.48;1.91;;;;;;;20.86;65.09;100909.02;;;;-45
2020/09/03 15:49:26;;;;;;;3.58;1.78;;;;;;;20.86;65.13;100910.24;;;;-48
2020/09/03 15:52:26;;;;;;;2.80;1.75;;;;;;;20.87;65.08;100909.34;;;;-47
2020/09/03 15:55:26;;;;;;;2.84;1.80;;;;;;;20.88;65.12;100917.42;;;;-46
2020/09/03 15:58:26;;;;;;;10.09;2.01;;;;;;;20.89;65.22;100919.38;;;;-49
2020/09/03 16:01:26;;;;;;;12.86;2.28;;;;;;;20.90;65.26;100921.11;;;;-58
2020/09/03 16:04:26;;;;;;;6.07;1.77;;;;;;;20.92;65.23;100922.59;;;;-51
2020/09/03 16:07:26;;;;;;;3.56;1.81;;;;;;;20.93;65.19;100918.67;;;;-50
2020/09/03 16:10:25;;;;;;;5.08;2.09;;;;;;;20.94;65.14;100922.28;;;;-51
2020/09/03 16:13:26;;;;;;;4.09;1.80;;;;;;;20.95;65.26;100924.23;;;;-51
2020/09/03 16:16:26;;;;;;;3.73;1.83;;;;;;;20.95;65.16;100925.70;;;;-56
2020/09/03 16:19:26;;;;;;;5.89;1.78;;;;;;;20.96;65.19;100921.81;;;;-54
2020/09/03 16:22:26;;;;;;;4.31;1.80;;;;;;;20.98;65.17;100925.63;;;;-56
2020/09/03 16:25:26;;;;;;;3.97;1.75;;;;;;;20.99;65.16;100932.58;;;;-56
2020/09/03 16:28:26;;;;;;;4.38;1.87;;;;;;;20.99;65.13;100941.30;;;;-44
2020/09/03 16:31:26;;;;;;;6.12;1.99;;;;;;;21.01;65.17;100949.05;;;;-57
2020/09/03 16:34:26;;;;;;;3.79;1.82;;;;;;;21.01;65.23;100929.34;;;;-59
2020/09/03 16:37:26;;;;;;;3.19;1.83;;;;;;;21.02;65.22;100926.96;;;;-46
2020/09/03 16:40:29;;;;;;;3.68;1.71;;;;;;;21.02;65.19;100928.67;;;;-46
2020/09/03 16:43:26;;;;;;;3.51;1.79;;;;;;;21.01;65.24;100932.10;;;;-44